createdAt,value
2022-12-25T00:03:37.693Z,101333.41
2022-12-25T00:08:31.110Z,101324.53
2022-12-25T00:13:24.357Z,101330.81
2022-12-25T00:18:19.206Z,101203.44
2022-12-25T00:23:12.369Z,101370.22
2022-12-25T00:28:05.962Z,101354.59
2022-12-25T00:32:59.166Z,101336.91
2022-12-25T00:37:53.738Z,101375.69
2022-12-25T00:42:46.908Z,101294.94
2022-12-25T00:47:40.399Z,101388.00
2022-12-25T00:52:34.211Z,101334.91
2022-12-25T00:57:28.891Z,101402.78
2022-12-25T01:02:25.676Z,101399.59
2022-12-25T01:07:20.970Z,101384.03
2022-12-25T01:12:14.194Z,101363.81
2022-12-25T01:17:08.885Z,101248.31
2022-12-25T01:22:02.099Z,101293.59
2022-12-25T01:26:55.306Z,101391.09
2022-12-25T01:31:48.469Z,101276.47
2022-12-25T01:36:44.853Z,101395.31
2022-12-25T01:41:38.035Z,101391.28
2022-12-25T01:46:32.322Z,101405.63
2022-12-25T01:51:30.184Z,101416.75
2022-12-25T01:56:26.512Z,101408.22
2022-12-25T02:01:19.828Z,101382.47
2022-12-25T02:06:13.424Z,101355.78
2022-12-25T02:11:29.461Z,101339.75
2022-12-25T02:16:29.397Z,101338.31
2022-12-25T02:21:36.689Z,101388.84
2022-12-25T02:26:56.708Z,101424.19
2022-12-25T02:31:59.528Z,101383.75
2022-12-25T02:36:59.427Z,101431.34
2022-12-25T02:41:55.272Z,101319.13
2022-12-25T02:47:06.581Z,101410.63
2022-12-25T02:52:24.186Z,101371.81
2022-12-25T02:57:37.297Z,101416.41
2022-12-25T03:02:53.165Z,101407.28
2022-12-25T03:07:48.589Z,101412.25
2022-12-25T03:12:47.679Z,101424.59
2022-12-25T03:17:41.080Z,101393.78
2022-12-25T03:22:52.375Z,101431.00
2022-12-25T03:27:49.195Z,101399.44
2022-12-25T03:32:58.788Z,101433.19
2022-12-25T03:38:36.211Z,101443.28
2022-12-25T03:43:56.354Z,101398.94
2022-12-25T03:49:14.206Z,101459.09
2022-12-25T03:54:28.429Z,101440.75
2022-12-25T03:59:41.824Z,101462.75
2022-12-25T04:04:52.471Z,101434.28
2022-12-25T04:10:03.127Z,101420.72
2022-12-25T04:15:15.269Z,101464.06
2022-12-25T04:20:26.847Z,101454.25
2022-12-25T04:25:37.407Z,101447.66
2022-12-25T04:30:49.397Z,101458.97
2022-12-25T04:36:00.009Z,101451.31
2022-12-25T04:40:54.760Z,101483.09
2022-12-25T04:45:55.111Z,101490.63
2022-12-25T04:50:48.429Z,101468.81
2022-12-25T04:55:41.551Z,101485.28
2022-12-25T05:00:34.973Z,101538.88
2022-12-25T05:05:29.684Z,101515.84
2022-12-25T05:10:22.862Z,101551.91
2022-12-25T05:15:16.150Z,101572.16
2022-12-25T05:20:09.832Z,101572.22
2022-12-25T05:25:04.376Z,101580.84
2022-12-25T05:29:57.504Z,101526.09
2022-12-25T05:34:50.653Z,101568.47
2022-12-25T05:39:43.828Z,101572.88
2022-12-25T05:44:38.396Z,101583.94
2022-12-25T05:49:31.674Z,101598.47
2022-12-25T05:54:24.911Z,101579.31
2022-12-25T05:59:18.328Z,101571.13
2022-12-25T06:04:13.283Z,101488.25
2022-12-25T06:09:06.734Z,101498.38
2022-12-25T06:13:59.972Z,101593.94
2022-12-25T06:18:53.284Z,101595.59
2022-12-25T06:23:48.052Z,101641.19
2022-12-25T06:28:42.073Z,101653.94
2022-12-25T06:33:35.480Z,101640.25
2022-12-25T06:38:29.647Z,101664.59
2022-12-25T06:43:24.209Z,101671.22
2022-12-25T06:48:17.497Z,101642.22
2022-12-25T06:53:10.674Z,101592.22
2022-12-25T06:58:03.854Z,101691.97
2022-12-25T07:02:58.628Z,101695.31
2022-12-25T07:07:51.854Z,101697.75
2022-12-25T07:12:45.151Z,101687.84
2022-12-25T07:17:38.497Z,101709.88
2022-12-25T07:22:33.133Z,101571.25
2022-12-25T07:27:26.396Z,101730.75
2022-12-25T07:32:19.921Z,101689.22
2022-12-25T07:37:13.242Z,101734.63
2022-12-25T07:42:07.881Z,101744.88
2022-12-25T07:47:01.137Z,101758.56
2022-12-25T07:51:54.341Z,101658.13
2022-12-25T07:56:50.492Z,101767.03
2022-12-25T08:01:47.249Z,101771.25
2022-12-25T08:06:43.406Z,101786.34
2022-12-25T08:11:37.293Z,101726.88
2022-12-25T08:16:30.598Z,101764.91
2022-12-25T08:21:25.413Z,101732.34
2022-12-25T08:26:21.501Z,101792.78
2022-12-25T08:31:17.878Z,101772.28
2022-12-25T08:36:12.967Z,101558.06
2022-12-25T08:41:11.163Z,101779.47
2022-12-25T08:46:04.874Z,101780.72
2022-12-25T08:50:59.007Z,101716.78
2022-12-25T08:55:58.782Z,101732.09
2022-12-25T09:00:53.568Z,101775.44
2022-12-25T09:05:48.454Z,101770.75
2022-12-25T09:10:41.871Z,101692.34
2022-12-25T09:15:35.464Z,101748.63
2022-12-25T09:20:38.142Z,101746.72
2022-12-25T09:25:31.470Z,101692.25
2022-12-25T09:30:27.185Z,101612.84
2022-12-25T09:35:20.563Z,101730.47
2022-12-25T09:40:21.364Z,101776.38
2022-12-25T09:45:19.363Z,101798.44
2022-12-25T09:50:17.720Z,101772.34
2022-12-25T09:55:20.045Z,101796.81
2022-12-25T10:00:18.554Z,101593.97
2022-12-25T10:05:31.269Z,101759.47
2022-12-25T10:10:44.715Z,101709.34
2022-12-25T10:15:48.612Z,101603.91
2022-12-25T10:20:47.965Z,101774.78
2022-12-25T10:25:42.775Z,101788.88
2022-12-25T10:30:36.059Z,101768.31
2022-12-25T10:35:36.132Z,101787.34
2022-12-25T10:40:38.329Z,101679.63
2022-12-25T10:45:43.423Z,101789.38
2022-12-25T10:50:44.320Z,101784.78
2022-12-25T10:55:37.552Z,101794.41
2022-12-25T11:00:33.199Z,101685.50
2022-12-25T11:05:29.852Z,101746.09
2022-12-25T11:10:26.875Z,101807.63
2022-12-25T11:15:48.927Z,101814.56
2022-12-25T11:20:50.134Z,101741.47
2022-12-25T11:25:44.820Z,101802.19
2022-12-25T11:30:41.683Z,101802.88
2022-12-25T11:35:46.067Z,101805.50
2022-12-25T11:40:49.778Z,101762.66
2022-12-25T11:45:48.864Z,101757.78
2022-12-25T11:50:50.769Z,101783.53
2022-12-25T11:55:54.906Z,101803.56
2022-12-25T12:00:51.073Z,101745.63
2022-12-25T12:05:47.342Z,101776.44
2022-12-25T12:11:00.194Z,101797.09
2022-12-25T12:15:57.866Z,101761.69
2022-12-25T12:21:05.910Z,101803.44
2022-12-25T12:25:59.473Z,101758.00
2022-12-25T12:31:03.099Z,101777.44
2022-12-25T12:35:56.877Z,101814.06
2022-12-25T12:40:57.739Z,101759.50
2022-12-25T12:45:57.411Z,101833.84
2022-12-25T12:51:05.591Z,101846.91
2022-12-25T12:56:11.347Z,101815.91
2022-12-25T13:01:14.809Z,101813.72
2022-12-25T13:06:15.165Z,101831.47
2022-12-25T13:11:16.218Z,101843.72
2022-12-25T13:16:26.345Z,101821.72
2022-12-25T13:21:24.290Z,101742.84
2022-12-25T13:26:20.719Z,101829.81
2022-12-25T13:31:20.041Z,101858.34
2022-12-25T13:36:16.447Z,101859.22
2022-12-25T13:41:41.970Z,101858.19
2022-12-25T13:46:35.340Z,101837.25
2022-12-25T13:51:29.829Z,101734.06
2022-12-25T13:56:27.223Z,101868.47
2022-12-25T14:01:20.733Z,101822.63
2022-12-25T14:06:20.633Z,101879.50
2022-12-25T14:11:17.293Z,101888.72
2022-12-25T14:16:12.939Z,101828.09
2022-12-25T14:21:08.948Z,101842.19
2022-12-25T14:26:10.445Z,101843.75
2022-12-25T14:31:05.498Z,101868.91
2022-12-25T14:36:00.639Z,101921.41
2022-12-25T14:41:01.949Z,101800.19
2022-12-25T14:45:57.732Z,101872.84
2022-12-25T14:50:58.063Z,101936.38
2022-12-25T14:55:55.164Z,101917.56
2022-12-25T15:00:56.617Z,101902.91
2022-12-25T15:06:01.416Z,101934.63
2022-12-25T15:11:00.366Z,101933.97
2022-12-25T15:15:59.792Z,101907.72
2022-12-25T15:20:53.793Z,101914.00
2022-12-25T15:25:47.551Z,101915.06
2022-12-25T15:30:48.096Z,101940.25
2022-12-25T15:35:41.569Z,101955.09
2022-12-25T15:40:52.471Z,101842.31
2022-12-25T15:45:46.849Z,101953.81
2022-12-25T15:50:43.762Z,101907.31
2022-12-25T15:55:36.982Z,101954.13
2022-12-25T16:00:30.368Z,101961.28
2022-12-25T16:05:25.135Z,101947.88
2022-12-25T16:10:21.007Z,101927.22
2022-12-25T16:15:16.219Z,101946.84
2022-12-25T16:20:10.542Z,101940.72
2022-12-25T16:25:05.450Z,101956.88
2022-12-25T16:30:02.579Z,101886.22
2022-12-25T16:34:58.534Z,101990.16
2022-12-25T16:39:51.877Z,101994.22
2022-12-25T16:44:46.535Z,102001.50
2022-12-25T16:49:39.773Z,101894.31
2022-12-25T16:54:33.091Z,101988.38
2022-12-25T16:59:26.467Z,101973.28
2022-12-25T17:04:21.047Z,102015.78
2022-12-25T17:09:14.344Z,101912.66
2022-12-25T17:14:07.931Z,102036.06
2022-12-25T17:19:04.429Z,102035.91
2022-12-25T17:24:03.172Z,102028.81
2022-12-25T17:28:57.489Z,102043.41
2022-12-25T17:33:53.438Z,102044.53
2022-12-25T17:38:49.903Z,101983.41
2022-12-25T17:43:45.957Z,101931.47
2022-12-25T17:48:39.585Z,102000.78
2022-12-25T17:53:33.351Z,102007.78
2022-12-25T17:58:27.367Z,101993.50
2022-12-25T18:03:23.128Z,102063.19
2022-12-25T18:08:18.696Z,102048.63
2022-12-25T18:13:12.673Z,102084.06
2022-12-25T18:18:06.523Z,102020.41
2022-12-25T18:23:01.533Z,102075.19
2022-12-25T18:27:55.286Z,102023.38
2022-12-25T18:32:48.647Z,102055.78
2022-12-25T18:37:42.397Z,102077.25
2022-12-25T18:42:43.459Z,102051.50
2022-12-25T18:47:39.253Z,102010.44
2022-12-25T18:52:48.200Z,102093.50
2022-12-25T18:57:44.999Z,102099.31
2022-12-25T19:02:38.414Z,102085.69
2022-12-25T19:07:31.744Z,102087.47
2022-12-25T19:12:25.127Z,101957.50
2022-12-25T19:17:20.153Z,102088.53
2022-12-25T19:22:13.462Z,102095.22
2022-12-25T19:27:06.712Z,102040.38
2022-12-25T19:32:00.100Z,102050.63
2022-12-25T19:36:54.805Z,102101.13
2022-12-25T19:41:48.629Z,102082.44
2022-12-25T19:46:42.753Z,102101.75
2022-12-25T19:51:38.540Z,102101.44
2022-12-25T19:56:37.346Z,102137.41
2022-12-25T20:01:31.400Z,102089.91
2022-12-25T20:06:28.386Z,102104.38
2022-12-25T20:11:23.211Z,102092.56
2022-12-25T20:16:20.097Z,102130.91
2022-12-25T20:21:15.328Z,102046.19
2022-12-25T20:26:17.864Z,102096.84
2022-12-25T20:31:16.867Z,102066.59
2022-12-25T20:36:12.927Z,102151.03
2022-12-25T20:46:21.909Z,102106.41
2022-12-25T20:51:19.448Z,101968.94
2022-12-25T20:56:16.516Z,102123.88
2022-12-25T21:01:12.542Z,102162.13
2022-12-25T21:06:09.016Z,102117.19
2022-12-25T21:11:04.805Z,102116.63
2022-12-25T21:16:01.289Z,102113.28
2022-12-25T21:20:56.772Z,102135.50
2022-12-25T21:25:52.934Z,102145.81
2022-12-25T21:30:55.027Z,102128.97
2022-12-25T21:35:48.399Z,102118.78
2022-12-25T21:40:42.249Z,102160.53
2022-12-25T21:45:35.910Z,102157.25
2022-12-25T21:50:49.035Z,102161.59
2022-12-25T21:55:42.586Z,102153.84
2022-12-25T22:00:36.958Z,102131.72
2022-12-25T22:05:57.186Z,102092.41
2022-12-25T22:10:50.489Z,102145.94
2022-12-25T22:16:01.289Z,102133.19
2022-12-25T22:20:56.750Z,102110.25
2022-12-25T22:25:50.065Z,102159.72
2022-12-25T22:30:44.609Z,102157.13
2022-12-25T22:35:37.938Z,102182.81
2022-12-25T22:40:32.672Z,102006.41
2022-12-25T22:45:26.169Z,102185.94
2022-12-25T22:50:21.544Z,102190.56
2022-12-25T22:55:17.908Z,102025.19
2022-12-25T23:00:15.072Z,102157.38
2022-12-25T23:05:08.932Z,102159.88
2022-12-25T23:10:03.501Z,102187.03
2022-12-25T23:14:56.733Z,102206.09
2022-12-25T23:20:08.509Z,102238.75
2022-12-25T23:25:19.108Z,102181.28
2022-12-25T23:30:14.049Z,102207.09
2022-12-25T23:35:09.793Z,102211.63
2022-12-25T23:40:03.079Z,102273.75
2022-12-25T23:44:56.216Z,102231.50
2022-12-25T23:49:49.371Z,102219.81
2022-12-25T23:54:43.953Z,102298.28
2022-12-25T23:59:38.489Z,102288.94
